Time;durP1;ratioP1;P1;durP2;ratioP2;P2;SDS_P1;SDS_P2;PMS_P1;PMS_P2;Temp;Humidity;BMP_temperature;BMP_pressure;BME280_temperature;BME280_humidity;BME280_pressure;Samples;Min_cycle;Max_cycle;Signal;HPM_P1;HPM_P2
2023/01/04 00:04:30;;;;;;;38.3;25.7;;;;;;;4.6;83.6;100080;;;;
2023/01/04 00:14:30;;;;;;;38.3;25.7;;;;;;;4.6;84.1;100090;;;;
2023/01/04 00:24:30;;;;;;;29.7;20.8;;;;;;;4.5;84.2;100090;;;;
2023/01/04 00:34:30;;;;;;;29.7;20.8;;;;;;;4.4;84.2;100100;;;;
2023/01/04 00:44:30;;;;;;;29.7;20.8;;;;;;;4.4;84.9;100090;;;;
2023/01/04 00:54:30;;;;;;;25.3;17.6;;;;;;;4.1;84.6;100080;;;;
2023/01/04 01:04:30;;;;;;;25.3;17.6;;;;;;;3.7;84.9;100090;;;;
2023/01/04 01:15:30;;;;;;;26.9;16.6;;;;;;;3.5;85.8;100080;;;;
2023/01/04 01:26:30;;;;;;;26.9;16.6;;;;;;;3.2;86.1;100070;;;;
2023/01/04 01:37:30;;;;;;;26.9;16.6;;;;;;;3;86.9;100070;;;;
2023/01/04 01:48:30;;;;;;;27.3;15.1;;;;;;;2.8;87.1;100060;;;;
2023/01/04 01:59:30;;;;;;;27.3;15.1;;;;;;;2.5;87.2;100060;;;;
2023/01/04 02:10:30;;;;;;;27.3;15.1;;;;;;;2.3;87.2;100080;;;;
2023/01/04 02:20:30;;;;;;;26.2;15.8;;;;;;;2.4;87.6;100080;;;;
2023/01/04 02:31:30;;;;;;;26.2;15.8;;;;;;;2.3;88;100080;;;;
2023/01/04 02:41:30;;;;;;;26.2;15.8;;;;;;;2.4;88.6;100060;;;;
2023/01/04 02:51:30;;;;;;;30.1;16.9;;;;;;;2.5;88.8;100050;;;;
2023/01/04 03:12:30;;;;;;;30.1;16.9;;;;;;;2.4;88.4;100030;;;;
2023/01/04 03:35:36;;;;;;;30.7;19.6;;;;;;;1.8;88;100010;;;;
2023/01/04 03:55:30;;;;;;;32.9;18.5;;;;;;;1.3;87.6;100010;;;;
2023/01/04 04:17:30;;;;;;;33.2;18.3;;;;;;;1.5;89.4;100000;;;;
2023/01/04 04:28:30;;;;;;;33.2;18.3;;;;;;;1.6;89.9;99990;;;;
2023/01/04 04:39:30;;;;;;;33.2;18.3;;;;;;;1.7;90.4;99990;;;;
2023/01/04 04:49:31;;;;;;;40.1;22.7;;;;;;;1.7;90.5;99990;;;;
2023/01/04 04:59:30;;;;;;;40.1;22.7;;;;;;;1.4;90.1;99980;;;;
2023/01/04 05:09:30;;;;;;;40.1;22.7;;;;;;;1;89.5;99960;;;;
2023/01/04 05:20:30;;;;;;;33.9;20.5;;;;;;;0.6;88.6;99940;;;;
2023/01/04 05:31:02;;;;;;;33.9;20.5;;;;;;;0.4;88.4;99920;;;;
2023/01/04 05:42:30;;;;;;;33.9;20.5;;;;;;;0.3;88.8;99920;;;;
2023/01/04 05:52:30;;;;;;;26.6;16.6;;;;;;;0;88.2;99920;;;;
2023/01/04 06:02:30;;;;;;;26.6;16.6;;;;;;;-0.2;88;99910;;;;
2023/01/04 06:12:30;;;;;;;26.6;16.6;;;;;;;-0.4;87.8;99920;;;;
2023/01/04 06:23:30;;;;;;;36.8;18.6;;;;;;;-0.6;88;99910;;;;
2023/01/04 06:34:30;;;;;;;36.8;18.6;;;;;;;-0.8;88.3;99900;;;;
2023/01/04 06:44:30;;;;;;;42.9;23.1;;;;;;;-0.9;88.4;99880;;;;
2023/01/04 06:55:30;;;;;;;42.9;23.1;;;;;;;-0.9;88.5;99880;;;;
2023/01/04 07:06:30;;;;;;;42.9;23.1;;;;;;;-0.9;88.6;99890;;;;
2023/01/04 07:16:30;;;;;;;37.4;21.6;;;;;;;-0.9;88.6;99880;;;;
2023/01/04 07:27:30;;;;;;;37.4;21.6;;;;;;;-0.8;88.6;99880;;;;
2023/01/04 07:38:30;;;;;;;37.4;21.6;;;;;;;-0.7;88.7;99860;;;;
2023/01/04 07:48:30;;;;;;;36.9;22.3;;;;;;;-0.5;88.8;99860;;;;
2023/01/04 07:59:30;;;;;;;36.9;22.3;;;;;;;-0.4;88.6;99870;;;;
2023/01/04 08:10:30;;;;;;;36.9;22.3;;;;;;;-0.2;88.8;99850;;;;
2023/01/04 08:20:30;;;;;;;48.7;27.9;;;;;;;0.1;89;99830;;;;
2023/01/04 08:30:30;;;;;;;48.7;27.9;;;;;;;0.3;88.8;99840;;;;
2023/01/04 08:40:30;;;;;;;48.7;27.9;;;;;;;0.5;88.8;99850;;;;
2023/01/04 08:51:30;;;;;;;39.7;24.8;;;;;;;0.9;89;99850;;;;
2023/01/04 09:01:30;;;;;;;39.7;24.8;;;;;;;1.4;89.3;99840;;;;
2023/01/04 09:11:30;;;;;;;39.7;24.8;;;;;;;1.9;89.5;99820;;;;
2023/01/04 09:22:30;;;;;;;37.9;25.2;;;;;;;2.5;89.5;99800;;;;
2023/01/04 09:33:30;;;;;;;37.9;25.2;;;;;;;3.5;87.1;99790;;;;
2023/01/04 09:44:30;;;;;;;16.1;8.9;;;;;;;4.3;83;99750;;;;
2023/01/04 09:54:30;;;;;;;16.1;8.9;;;;;;;5;79.2;99730;;;;
2023/01/04 10:05:30;;;;;;;16.1;8.9;;;;;;;5.7;77.7;99700;;;;
2023/01/04 10:15:30;;;;;;;7.9;5.1;;;;;;;6.3;74.7;99660;;;;
2023/01/04 10:25:30;;;;;;;7.9;5.1;;;;;;;6.7;73.7;99650;;;;
2023/01/04 10:35:30;;;;;;;7.9;5.1;;;;;;;7.2;72.7;99620;;;;
2023/01/04 10:46:30;;;;;;;9.9;7.6;;;;;;;7.6;70.6;99600;;;;
2023/01/04 10:56:30;;;;;;;9.9;7.6;;;;;;;8;70.4;99580;;;;
2023/01/04 11:07:30;;;;;;;9.9;7.6;;;;;;;8.6;68.1;99560;;;;
2023/01/04 11:17:30;;;;;;;9.4;7.1;;;;;;;9.1;65.6;99520;;;;
2023/01/04 11:27:30;;;;;;;9.4;7.1;;;;;;;9.5;63.2;99490;;;;
2023/01/04 11:37:32;;;;;;;9.4;7.1;;;;;;;9.7;65.2;99470;;;;
2023/01/04 11:47:30;;;;;;;9.7;6.7;;;;;;;9.8;62.3;99450;;;;
2023/01/04 11:58:30;;;;;;;9.7;6.7;;;;;;;9.9;61.1;99440;;;;
2023/01/04 12:08:30;;;;;;;9.7;6.7;;;;;;;9.7;60.7;99430;;;;
2023/01/04 12:19:30;;;;;;;7.6;4.4;;;;;;;9.8;61;99410;;;;
2023/01/04 12:30:30;;;;;;;7.6;4.4;;;;;;;10;61.4;99370;;;;
2023/01/04 12:40:30;;;;;;;7.6;4.4;;;;;;;10.2;59;99340;;;;
2023/01/04 12:51:30;;;;;;;6.4;2.8;;;;;;;10.2;58;99320;;;;
2023/01/04 13:02:30;;;;;;;6.4;2.8;;;;;;;9.9;56.9;99320;;;;
2023/01/04 13:13:30;;;;;;;4.7;2.2;;;;;;;9.5;57.4;99290;;;;
2023/01/04 13:23:30;;;;;;;4.7;2.2;;;;;;;9.3;58.5;99280;;;;
2023/01/04 13:34:30;;;;;;;4.7;2.2;;;;;;;9.1;59.8;99250;;;;
2023/01/04 13:44:30;;;;;;;5.9;2.4;;;;;;;8.8;59.8;99230;;;;
2023/01/04 13:54:30;;;;;;;5.9;2.4;;;;;;;8.8;60.2;99210;;;;
2023/01/04 14:05:30;;;;;;;5.9;2.4;;;;;;;8.6;60;99190;;;;
2023/01/04 14:15:32;;;;;;;4.5;2.8;;;;;;;8.4;60.6;99180;;;;
2023/01/04 14:26:30;;;;;;;4.5;2.8;;;;;;;8.3;60.7;99170;;;;
2023/01/04 14:37:30;;;;;;;4.5;2.8;;;;;;;8;61.5;99140;;;;
2023/01/04 14:48:30;;;;;;;5.3;2.8;;;;;;;8;63.1;99140;;;;
2023/01/04 14:59:30;;;;;;;5.3;2.8;;;;;;;7.9;64.1;99120;;;;
2023/01/04 15:10:30;;;;;;;5.3;2.8;;;;;;;7.9;64.4;99110;;;;
2023/01/04 15:20:30;;;;;;;7.2;3.8;;;;;;;7.9;65;99090;;;;
2023/01/04 15:30:30;;;;;;;7.2;3.8;;;;;;;8.1;64.9;99080;;;;
2023/01/04 15:40:31;;;;;;;7.2;3.8;;;;;;;8;65.2;99040;;;;
2023/01/04 15:51:30;;;;;;;6.2;3.6;;;;;;;7.8;65.9;99030;;;;
2023/01/04 16:01:30;;;;;;;6.2;3.6;;;;;;;7.9;65.9;99030;;;;
2023/01/04 16:11:30;;;;;;;6.2;3.6;;;;;;;8;66.2;99020;;;;
2023/01/04 16:21:30;;;;;;;6.3;3.9;;;;;;;8.2;66.2;99010;;;;
2023/01/04 16:32:30;;;;;;;6.3;3.9;;;;;;;8.2;66.8;98990;;;;
2023/01/04 16:42:30;;;;;;;6.3;3.9;;;;;;;8.2;68.1;98960;;;;
2023/01/04 16:52:30;;;;;;;7.3;3.5;;;;;;;8.1;69.2;98940;;;;
2023/01/04 17:03:31;;;;;;;7.3;3.5;;;;;;;8.1;69.7;98930;;;;
2023/01/04 17:13:30;;;;;;;6.1;3.3;;;;;;;8.1;70.1;98920;;;;
2023/01/04 17:24:30;;;;;;;6.1;3.3;;;;;;;8.2;70.8;98880;;;;
2023/01/04 17:35:30;;;;;;;6.1;3.3;;;;;;;8.2;71.8;98830;;;;
2023/01/04 17:45:30;;;;;;;5.1;3.3;;;;;;;8.1;72.1;98830;;;;
2023/01/04 17:56:32;;;;;;;5.1;3.3;;;;;;;8.2;72.4;98810;;;;
2023/01/04 18:06:31;;;;;;;5.1;3.3;;;;;;;8.2;73.5;98790;;;;
2023/01/04 18:16:30;;;;;;;6.4;3.3;;;;;;;8.2;74.1;98790;;;;
2023/01/04 18:27:30;;;;;;;6.4;3.3;;;;;;;8.2;74.3;98770;;;;
2023/01/04 18:37:30;;;;;;;6.4;3.3;;;;;;;8.2;74.8;98760;;;;
2023/01/04 18:47:31;;;;;;;6;2.9;;;;;;;8.1;75.3;98750;;;;
2023/01/04 18:58:30;;;;;;;6;2.9;;;;;;;8;76;98710;;;;
2023/01/04 19:09:30;;;;;;;6;2.9;;;;;;;8.1;76.3;98720;;;;
2023/01/04 19:20:31;;;;;;;5.9;3.5;;;;;;;8.2;76.3;98720;;;;
2023/01/04 19:30:30;;;;;;;5.9;3.5;;;;;;;8.3;75.4;98710;;;;
2023/01/04 19:41:33;;;;;;;5.9;3.5;;;;;;;8.4;75.1;98710;;;;
2023/01/04 19:51:30;;;;;;;8.9;4.7;;;;;;;8.6;75.1;98690;;;;
2023/01/04 20:02:30;;;;;;;8.9;4.7;;;;;;;8.7;74.8;98660;;;;
2023/01/04 20:13:32;;;;;;;7.6;3.7;;;;;;;8.8;74.7;98660;;;;
2023/01/04 20:23:30;;;;;;;7.6;3.7;;;;;;;9;74.7;98650;;;;
2023/01/04 20:33:30;;;;;;;7.6;3.7;;;;;;;9.1;74.6;98620;;;;
2023/01/04 20:44:30;;;;;;;5.5;2.9;;;;;;;9.1;74.9;98620;;;;
2023/01/04 20:54:30;;;;;;;5.5;2.9;;;;;;;9.1;75.3;98610;;;;
2023/01/04 21:05:30;;;;;;;5.5;2.9;;;;;;;9.1;75.5;98600;;;;
2023/01/04 21:16:30;;;;;;;3.7;2.2;;;;;;;9.2;75.2;98580;;;;
2023/01/04 21:27:31;;;;;;;3.7;2.2;;;;;;;9.3;75;98570;;;;
2023/01/04 21:37:30;;;;;;;3.7;2.2;;;;;;;9.4;75.2;98570;;;;
2023/01/04 21:48:30;;;;;;;4.2;1.9;;;;;;;9.3;76.7;98560;;;;
2023/01/04 21:58:30;;;;;;;4.2;1.9;;;;;;;9.3;76.2;98530;;;;
2023/01/04 22:08:31;;;;;;;4.2;1.9;;;;;;;9.2;76.3;98510;;;;
2023/01/04 22:19:30;;;;;;;3.8;2.2;;;;;;;9.2;76.3;98490;;;;
2023/01/04 22:30:31;;;;;;;3.8;2.2;;;;;;;9.3;76;98470;;;;
2023/01/04 22:41:30;;;;;;;3.8;2.2;;;;;;;9.3;76.3;98460;;;;
2023/01/04 22:51:31;;;;;;;3.6;1.8;;;;;;;9.3;76.7;98460;;;;
2023/01/04 23:01:30;;;;;;;3.6;1.8;;;;;;;9.4;76.9;98450;;;;
2023/01/04 23:11:30;;;;;;;3.6;1.8;;;;;;;9.3;77.5;98450;;;;
2023/01/04 23:21:33;;;;;;;3;1.6;;;;;;;9.4;78.3;98430;;;;
2023/01/04 23:32:31;;;;;;;3;1.6;;;;;;;9.2;79.7;98400;;;;
2023/01/04 23:42:30;;;;;;;2.4;1.3;;;;;;;9.2;80.2;98400;;;;
2023/01/04 23:52:30;;;;;;;2.4;1.3;;;;;;;9.1;81.1;98380;;;;
